sensor_id;sensor_type;location;lat;lon;timestamp;P1;durP1;ratioP1;P2;durP2;ratioP2
60964;SDS011;46834;51.100;6.886;2022-09-17T00:02:22;2.38;;;1.00;;
60964;SDS011;46834;51.100;6.886;2022-09-17T00:04:49;3.55;;;1.02;;
60964;SDS011;46834;51.100;6.886;2022-09-17T00:07:15;3.90;;;1.20;;
60964;SDS011;46834;51.100;6.886;2022-09-17T00:09:42;1.63;;;1.10;;
60964;SDS011;46834;51.100;6.886;2022-09-17T00:12:08;2.17;;;1.13;;
60964;SDS011;46834;51.100;6.886;2022-09-17T00:14:34;2.95;;;1.33;;
60964;SDS011;46834;51.100;6.886;2022-09-17T00:17:00;3.30;;;1.20;;
60964;SDS011;46834;51.100;6.886;2022-09-17T00:19:26;5.00;;;1.50;;
60964;SDS011;46834;51.100;6.886;2022-09-17T00:21:51;3.15;;;1.40;;
60964;SDS011;46834;51.100;6.886;2022-09-17T00:24:17;3.72;;;1.48;;
60964;SDS011;46834;51.100;6.886;2022-09-17T00:26:44;2.65;;;1.23;;
60964;SDS011;46834;51.100;6.886;2022-09-17T00:29:11;2.03;;;1.15;;
60964;SDS011;46834;51.100;6.886;2022-09-17T00:31:37;4.60;;;1.42;;
60964;SDS011;46834;51.100;6.886;2022-09-17T00:34:03;2.88;;;1.20;;
60964;SDS011;46834;51.100;6.886;2022-09-17T00:36:33;3.25;;;1.60;;
60964;SDS011;46834;51.100;6.886;2022-09-17T00:39:00;2.40;;;0.98;;
60964;SDS011;46834;51.100;6.886;2022-09-17T00:41:30;3.47;;;1.10;;
60964;SDS011;46834;51.100;6.886;2022-09-17T00:43:58;3.05;;;1.10;;
60964;SDS011;46834;51.100;6.886;2022-09-17T00:46:46;2.33;;;1.30;;
60964;SDS011;46834;51.100;6.886;2022-09-17T00:49:15;2.35;;;1.13;;
60964;SDS011;46834;51.100;6.886;2022-09-17T00:51:52;2.20;;;0.98;;
60964;SDS011;46834;51.100;6.886;2022-09-17T00:54:25;3.50;;;1.15;;
60964;SDS011;46834;51.100;6.886;2022-09-17T00:56:51;7.13;;;1.85;;
60964;SDS011;46834;51.100;6.886;2022-09-17T00:59:17;2.17;;;1.17;;
60964;SDS011;46834;51.100;6.886;2022-09-17T01:01:44;5.50;;;1.45;;
60964;SDS011;46834;51.100;6.886;2022-09-17T01:04:20;3.70;;;1.25;;
60964;SDS011;46834;51.100;6.886;2022-09-17T01:09:58;2.65;;;1.40;;
60964;SDS011;46834;51.100;6.886;2022-09-17T01:13:06;3.78;;;1.30;;
60964;SDS011;46834;51.100;6.886;2022-09-17T01:16:03;5.10;;;1.30;;
60964;SDS011;46834;51.100;6.886;2022-09-17T01:24:38;3.00;;;1.27;;
60964;SDS011;46834;51.100;6.886;2022-09-17T01:27:59;2.65;;;1.00;;
60964;SDS011;46834;51.100;6.886;2022-09-17T01:33:33;3.28;;;1.30;;
60964;SDS011;46834;51.100;6.886;2022-09-17T01:36:19;4.30;;;1.33;;
60964;SDS011;46834;51.100;6.886;2022-09-17T01:47:58;3.45;;;1.30;;
60964;SDS011;46834;51.100;6.886;2022-09-17T01:50:35;3.92;;;1.60;;
60964;SDS011;46834;51.100;6.886;2022-09-17T01:53:08;4.30;;;1.10;;
60964;SDS011;46834;51.100;6.886;2022-09-17T01:55:37;2.30;;;1.25;;
60964;SDS011;46834;51.100;6.886;2022-09-17T01:58:10;3.72;;;1.92;;
60964;SDS011;46834;51.100;6.886;2022-09-17T02:00:57;4.47;;;1.30;;
60964;SDS011;46834;51.100;6.886;2022-09-17T02:03:29;4.30;;;1.70;;
60964;SDS011;46834;51.100;6.886;2022-09-17T02:06:12;8.38;;;1.83;;
60964;SDS011;46834;51.100;6.886;2022-09-17T02:08:52;2.97;;;1.27;;
60964;SDS011;46834;51.100;6.886;2022-09-17T02:11:29;4.30;;;1.65;;
60964;SDS011;46834;51.100;6.886;2022-09-17T02:14:05;5.43;;;1.50;;
60964;SDS011;46834;51.100;6.886;2022-09-17T02:16:47;2.72;;;1.10;;
60964;SDS011;46834;51.100;6.886;2022-09-17T02:19:22;3.47;;;1.25;;
60964;SDS011;46834;51.100;6.886;2022-09-17T02:25:07;3.60;;;1.35;;
60964;SDS011;46834;51.100;6.886;2022-09-17T02:27:57;4.00;;;1.38;;
60964;SDS011;46834;51.100;6.886;2022-09-17T02:30:32;5.18;;;1.27;;
60964;SDS011;46834;51.100;6.886;2022-09-17T02:32:58;2.70;;;1.23;;
60964;SDS011;46834;51.100;6.886;2022-09-17T02:35:30;3.15;;;1.38;;
60964;SDS011;46834;51.100;6.886;2022-09-17T02:37:57;3.63;;;1.42;;
60964;SDS011;46834;51.100;6.886;2022-09-17T02:40:24;6.45;;;1.63;;
60964;SDS011;46834;51.100;6.886;2022-09-17T02:43:06;4.00;;;1.13;;
60964;SDS011;46834;51.100;6.886;2022-09-17T02:49:12;3.42;;;1.35;;
60964;SDS011;46834;51.100;6.886;2022-09-17T02:58:18;6.75;;;1.60;;
60964;SDS011;46834;51.100;6.886;2022-09-17T03:00:52;5.65;;;1.70;;
60964;SDS011;46834;51.100;6.886;2022-09-17T03:06:03;5.80;;;1.80;;
60964;SDS011;46834;51.100;6.886;2022-09-17T03:08:36;4.40;;;1.50;;
60964;SDS011;46834;51.100;6.886;2022-09-17T03:11:06;3.92;;;1.10;;
60964;SDS011;46834;51.100;6.886;2022-09-17T03:13:35;2.45;;;1.20;;
60964;SDS011;46834;51.100;6.886;2022-09-17T03:16:01;4.15;;;1.40;;
60964;SDS011;46834;51.100;6.886;2022-09-17T03:18:28;4.28;;;1.20;;
60964;SDS011;46834;51.100;6.886;2022-09-17T03:20:54;4.38;;;1.40;;
60964;SDS011;46834;51.100;6.886;2022-09-17T03:23:19;3.50;;;1.13;;
60964;SDS011;46834;51.100;6.886;2022-09-17T03:25:45;3.38;;;1.40;;
60964;SDS011;46834;51.100;6.886;2022-09-17T03:28:13;4.47;;;1.38;;
60964;SDS011;46834;51.100;6.886;2022-09-17T03:30:40;3.92;;;1.00;;
60964;SDS011;46834;51.100;6.886;2022-09-17T03:33:08;4.60;;;1.20;;
60964;SDS011;46834;51.100;6.886;2022-09-17T03:35:34;6.80;;;1.30;;
60964;SDS011;46834;51.100;6.886;2022-09-17T03:38:00;6.10;;;1.60;;
60964;SDS011;46834;51.100;6.886;2022-09-17T03:40:26;4.03;;;1.58;;
60964;SDS011;46834;51.100;6.886;2022-09-17T03:42:51;5.63;;;1.63;;
60964;SDS011;46834;51.100;6.886;2022-09-17T03:45:17;7.68;;;1.40;;
60964;SDS011;46834;51.100;6.886;2022-09-17T03:47:43;5.65;;;1.55;;
60964;SDS011;46834;51.100;6.886;2022-09-17T03:50:09;6.85;;;1.63;;
60964;SDS011;46834;51.100;6.886;2022-09-17T03:52:34;4.72;;;1.20;;
60964;SDS011;46834;51.100;6.886;2022-09-17T03:55:01;3.65;;;1.05;;
60964;SDS011;46834;51.100;6.886;2022-09-17T03:57:27;4.50;;;1.10;;
60964;SDS011;46834;51.100;6.886;2022-09-17T03:59:53;2.60;;;1.45;;
60964;SDS011;46834;51.100;6.886;2022-09-17T04:02:18;3.17;;;1.20;;
60964;SDS011;46834;51.100;6.886;2022-09-17T04:04:44;3.67;;;1.23;;
60964;SDS011;46834;51.100;6.886;2022-09-17T04:07:10;4.90;;;1.33;;
60964;SDS011;46834;51.100;6.886;2022-09-17T04:09:35;4.88;;;1.10;;
60964;SDS011;46834;51.100;6.886;2022-09-17T04:12:01;3.45;;;1.17;;
60964;SDS011;46834;51.100;6.886;2022-09-17T04:14:27;3.80;;;1.45;;
60964;SDS011;46834;51.100;6.886;2022-09-17T04:16:53;4.30;;;1.23;;
60964;SDS011;46834;51.100;6.886;2022-09-17T04:19:18;4.75;;;1.20;;
60964;SDS011;46834;51.100;6.886;2022-09-17T04:21:44;5.97;;;1.40;;
60964;SDS011;46834;51.100;6.886;2022-09-17T04:24:10;2.38;;;1.10;;
60964;SDS011;46834;51.100;6.886;2022-09-17T04:26:35;3.88;;;0.93;;
60964;SDS011;46834;51.100;6.886;2022-09-17T04:29:01;5.70;;;1.40;;
60964;SDS011;46834;51.100;6.886;2022-09-17T04:31:27;5.38;;;1.35;;
60964;SDS011;46834;51.100;6.886;2022-09-17T04:33:53;5.75;;;1.30;;
60964;SDS011;46834;51.100;6.886;2022-09-17T04:36:19;2.53;;;1.00;;
60964;SDS011;46834;51.100;6.886;2022-09-17T04:38:47;2.97;;;1.33;;
60964;SDS011;46834;51.100;6.886;2022-09-17T04:41:14;2.47;;;1.38;;
60964;SDS011;46834;51.100;6.886;2022-09-17T04:43:39;5.70;;;1.38;;
60964;SDS011;46834;51.100;6.886;2022-09-17T04:46:05;5.20;;;1.40;;
60964;SDS011;46834;51.100;6.886;2022-09-17T04:48:31;7.05;;;1.85;;
60964;SDS011;46834;51.100;6.886;2022-09-17T04:50:56;2.45;;;1.38;;
60964;SDS011;46834;51.100;6.886;2022-09-17T04:53:22;4.75;;;1.30;;
60964;SDS011;46834;51.100;6.886;2022-09-17T04:55:48;3.97;;;1.40;;
60964;SDS011;46834;51.100;6.886;2022-09-17T04:58:14;3.33;;;1.33;;
60964;SDS011;46834;51.100;6.886;2022-09-17T05:00:39;4.93;;;1.45;;
60964;SDS011;46834;51.100;6.886;2022-09-17T05:03:06;6.47;;;1.23;;
60964;SDS011;46834;51.100;6.886;2022-09-17T05:05:32;3.88;;;1.15;;
60964;SDS011;46834;51.100;6.886;2022-09-17T05:07:58;6.57;;;1.77;;
60964;SDS011;46834;51.100;6.886;2022-09-17T05:10:24;5.22;;;1.10;;
60964;SDS011;46834;51.100;6.886;2022-09-17T05:12:51;3.15;;;1.25;;
60964;SDS011;46834;51.100;6.886;2022-09-17T05:15:20;4.10;;;1.25;;
60964;SDS011;46834;51.100;6.886;2022-09-17T05:17:48;4.60;;;0.93;;
60964;SDS011;46834;51.100;6.886;2022-09-17T05:20:14;2.92;;;1.42;;
60964;SDS011;46834;51.100;6.886;2022-09-17T05:22:44;4.25;;;1.20;;
60964;SDS011;46834;51.100;6.886;2022-09-17T05:25:16;4.55;;;1.20;;
60964;SDS011;46834;51.100;6.886;2022-09-17T05:27:44;4.82;;;1.63;;
60964;SDS011;46834;51.100;6.886;2022-09-17T05:30:10;3.47;;;1.20;;
60964;SDS011;46834;51.100;6.886;2022-09-17T05:32:37;5.75;;;1.45;;
60964;SDS011;46834;51.100;6.886;2022-09-17T05:35:04;5.25;;;1.25;;
60964;SDS011;46834;51.100;6.886;2022-09-17T05:37:31;3.10;;;1.00;;
60964;SDS011;46834;51.100;6.886;2022-09-17T05:39:57;2.88;;;1.10;;
60964;SDS011;46834;51.100;6.886;2022-09-17T05:42:23;4.50;;;1.50;;
60964;SDS011;46834;51.100;6.886;2022-09-17T05:44:48;6.65;;;1.33;;
60964;SDS011;46834;51.100;6.886;2022-09-17T05:47:14;2.72;;;1.50;;
60964;SDS011;46834;51.100;6.886;2022-09-17T05:49:40;4.72;;;1.23;;
60964;SDS011;46834;51.100;6.886;2022-09-17T05:52:06;4.70;;;1.20;;
60964;SDS011;46834;51.100;6.886;2022-09-17T05:54:31;3.85;;;1.30;;
60964;SDS011;46834;51.100;6.886;2022-09-17T05:56:57;7.25;;;1.45;;
60964;SDS011;46834;51.100;6.886;2022-09-17T05:59:23;6.22;;;1.30;;
60964;SDS011;46834;51.100;6.886;2022-09-17T06:01:48;4.63;;;1.20;;
60964;SDS011;46834;51.100;6.886;2022-09-17T06:04:15;3.08;;;1.40;;
60964;SDS011;46834;51.100;6.886;2022-09-17T06:06:41;3.40;;;1.05;;
60964;SDS011;46834;51.100;6.886;2022-09-17T06:09:07;5.93;;;1.40;;
60964;SDS011;46834;51.100;6.886;2022-09-17T06:11:35;6.05;;;1.27;;
60964;SDS011;46834;51.100;6.886;2022-09-17T06:14:01;4.43;;;1.65;;
60964;SDS011;46834;51.100;6.886;2022-09-17T06:16:27;4.55;;;1.08;;
60964;SDS011;46834;51.100;6.886;2022-09-17T06:18:53;3.90;;;1.52;;
60964;SDS011;46834;51.100;6.886;2022-09-17T06:21:19;4.50;;;1.58;;
60964;SDS011;46834;51.100;6.886;2022-09-17T06:23:48;4.72;;;1.33;;
60964;SDS011;46834;51.100;6.886;2022-09-17T06:26:14;4.03;;;1.40;;
60964;SDS011;46834;51.100;6.886;2022-09-17T06:28:41;4.10;;;1.15;;
60964;SDS011;46834;51.100;6.886;2022-09-17T06:31:07;6.13;;;1.40;;
60964;SDS011;46834;51.100;6.886;2022-09-17T06:33:35;3.10;;;1.25;;
60964;SDS011;46834;51.100;6.886;2022-09-17T06:36:02;5.43;;;1.35;;
60964;SDS011;46834;51.100;6.886;2022-09-17T06:38:32;4.60;;;0.93;;
60964;SDS011;46834;51.100;6.886;2022-09-17T06:41:00;2.10;;;1.13;;
60964;SDS011;46834;51.100;6.886;2022-09-17T06:43:25;3.33;;;1.15;;
60964;SDS011;46834;51.100;6.886;2022-09-17T06:45:52;7.68;;;1.55;;
60964;SDS011;46834;51.100;6.886;2022-09-17T06:48:24;6.13;;;1.40;;
60964;SDS011;46834;51.100;6.886;2022-09-17T06:50:53;4.85;;;1.10;;
60964;SDS011;46834;51.100;6.886;2022-09-17T06:53:20;6.30;;;1.48;;
60964;SDS011;46834;51.100;6.886;2022-09-17T06:55:47;6.35;;;1.23;;
60964;SDS011;46834;51.100;6.886;2022-09-17T06:58:13;4.60;;;1.25;;
60964;SDS011;46834;51.100;6.886;2022-09-17T07:00:39;2.40;;;0.90;;
60964;SDS011;46834;51.100;6.886;2022-09-17T07:03:05;5.43;;;1.23;;
60964;SDS011;46834;51.100;6.886;2022-09-17T07:05:30;4.35;;;1.17;;
60964;SDS011;46834;51.100;6.886;2022-09-17T07:07:59;2.08;;;1.10;;
60964;SDS011;46834;51.100;6.886;2022-09-17T07:10:26;2.85;;;0.93;;
60964;SDS011;46834;51.100;6.886;2022-09-17T07:12:53;5.68;;;1.20;;
60964;SDS011;46834;51.100;6.886;2022-09-17T07:15:19;3.67;;;1.08;;
60964;SDS011;46834;51.100;6.886;2022-09-17T07:17:45;4.93;;;1.00;;
60964;SDS011;46834;51.100;6.886;2022-09-17T07:20:11;3.17;;;1.38;;
60964;SDS011;46834;51.100;6.886;2022-09-17T07:22:37;1.65;;;0.90;;
60964;SDS011;46834;51.100;6.886;2022-09-17T07:25:03;3.53;;;1.17;;
60964;SDS011;46834;51.100;6.886;2022-09-17T07:27:30;3.08;;;1.30;;
60964;SDS011;46834;51.100;6.886;2022-09-17T07:29:56;3.67;;;1.05;;
60964;SDS011;46834;51.100;6.886;2022-09-17T07:32:23;4.57;;;1.00;;
60964;SDS011;46834;51.100;6.886;2022-09-17T07:34:49;4.70;;;1.05;;
60964;SDS011;46834;51.100;6.886;2022-09-17T07:37:15;3.67;;;1.10;;
60964;SDS011;46834;51.100;6.886;2022-09-17T07:39:41;5.72;;;1.40;;
60964;SDS011;46834;51.100;6.886;2022-09-17T07:42:08;6.70;;;1.27;;
60964;SDS011;46834;51.100;6.886;2022-09-17T07:44:35;4.07;;;1.27;;
60964;SDS011;46834;51.100;6.886;2022-09-17T07:47:01;3.80;;;1.10;;
60964;SDS011;46834;51.100;6.886;2022-09-17T07:49:27;8.65;;;1.55;;
60964;SDS011;46834;51.100;6.886;2022-09-17T07:51:53;6.18;;;1.20;;
60964;SDS011;46834;51.100;6.886;2022-09-17T07:54:21;4.00;;;1.20;;
60964;SDS011;46834;51.100;6.886;2022-09-17T07:56:47;7.20;;;1.35;;
60964;SDS011;46834;51.100;6.886;2022-09-17T07:59:13;4.93;;;1.35;;
60964;SDS011;46834;51.100;6.886;2022-09-17T08:01:39;2.92;;;1.05;;
60964;SDS011;46834;51.100;6.886;2022-09-17T08:04:04;1.95;;;0.73;;
60964;SDS011;46834;51.100;6.886;2022-09-17T08:06:30;4.93;;;0.90;;
60964;SDS011;46834;51.100;6.886;2022-09-17T08:09:01;3.53;;;1.30;;
60964;SDS011;46834;51.100;6.886;2022-09-17T08:11:28;2.33;;;0.95;;
60964;SDS011;46834;51.100;6.886;2022-09-17T08:13:55;3.85;;;1.02;;
60964;SDS011;46834;51.100;6.886;2022-09-17T08:16:21;4.95;;;1.17;;
60964;SDS011;46834;51.100;6.886;2022-09-17T08:18:52;7.25;;;1.13;;
60964;SDS011;46834;51.100;6.886;2022-09-17T08:21:20;5.13;;;1.75;;
60964;SDS011;46834;51.100;6.886;2022-09-17T08:23:46;5.30;;;1.58;;
60964;SDS011;46834;51.100;6.886;2022-09-17T08:26:16;3.42;;;1.20;;
60964;SDS011;46834;51.100;6.886;2022-09-17T08:28:45;3.85;;;1.10;;
60964;SDS011;46834;51.100;6.886;2022-09-17T08:31:14;3.28;;;1.10;;
60964;SDS011;46834;51.100;6.886;2022-09-17T08:33:42;5.60;;;0.95;;
60964;SDS011;46834;51.100;6.886;2022-09-17T08:36:10;4.22;;;0.70;;
60964;SDS011;46834;51.100;6.886;2022-09-17T08:38:38;2.85;;;1.05;;
60964;SDS011;46834;51.100;6.886;2022-09-17T08:46:31;7.65;;;1.20;;
60964;SDS011;46834;51.100;6.886;2022-09-17T08:49:50;3.75;;;0.90;;
60964;SDS011;46834;51.100;6.886;2022-09-17T08:58:12;3.67;;;1.17;;
60964;SDS011;46834;51.100;6.886;2022-09-17T09:07:16;3.28;;;1.10;;
60964;SDS011;46834;51.100;6.886;2022-09-17T09:09:54;5.20;;;1.25;;
60964;SDS011;46834;51.100;6.886;2022-09-17T09:12:44;3.72;;;1.00;;
60964;SDS011;46834;51.100;6.886;2022-09-17T09:17:50;2.60;;;1.00;;
60964;SDS011;46834;51.100;6.886;2022-09-17T09:20:19;2.70;;;0.80;;
60964;SDS011;46834;51.100;6.886;2022-09-17T09:23:51;4.90;;;1.00;;
60964;SDS011;46834;51.100;6.886;2022-09-17T09:26:15;1.73;;;0.95;;
60964;SDS011;46834;51.100;6.886;2022-09-17T09:28:47;3.88;;;0.90;;
60964;SDS011;46834;51.100;6.886;2022-09-17T09:31:54;4.75;;;1.38;;
60964;SDS011;46834;51.100;6.886;2022-09-17T09:34:50;4.38;;;1.02;;
60964;SDS011;46834;51.100;6.886;2022-09-17T09:37:26;3.55;;;1.15;;
60964;SDS011;46834;51.100;6.886;2022-09-17T09:40:06;2.72;;;0.85;;
60964;SDS011;46834;51.100;6.886;2022-09-17T09:42:50;5.20;;;1.05;;
60964;SDS011;46834;51.100;6.886;2022-09-17T09:57:31;4.53;;;1.10;;
60964;SDS011;46834;51.100;6.886;2022-09-17T10:00:24;7.45;;;1.02;;
60964;SDS011;46834;51.100;6.886;2022-09-17T10:02:59;2.67;;;0.93;;
60964;SDS011;46834;51.100;6.886;2022-09-17T10:05:51;3.10;;;0.85;;
60964;SDS011;46834;51.100;6.886;2022-09-17T10:08:22;2.75;;;0.85;;
60964;SDS011;46834;51.100;6.886;2022-09-17T10:11:03;1.63;;;0.63;;
60964;SDS011;46834;51.100;6.886;2022-09-17T10:13:37;3.00;;;0.93;;
60964;SDS011;46834;51.100;6.886;2022-09-17T10:16:26;3.85;;;1.30;;
60964;SDS011;46834;51.100;6.886;2022-09-17T10:21:34;2.28;;;0.95;;
60964;SDS011;46834;51.100;6.886;2022-09-17T10:24:04;0.88;;;0.60;;
60964;SDS011;46834;51.100;6.886;2022-09-17T10:27:06;3.30;;;0.90;;
60964;SDS011;46834;51.100;6.886;2022-09-17T10:29:43;2.40;;;0.93;;
60964;SDS011;46834;51.100;6.886;2022-09-17T10:32:14;3.38;;;1.13;;
60964;SDS011;46834;51.100;6.886;2022-09-17T10:34:56;3.40;;;0.82;;
60964;SDS011;46834;51.100;6.886;2022-09-17T10:37:34;1.40;;;0.80;;
60964;SDS011;46834;51.100;6.886;2022-09-17T10:42:42;2.47;;;0.80;;
60964;SDS011;46834;51.100;6.886;2022-09-17T10:45:34;3.78;;;1.10;;
60964;SDS011;46834;51.100;6.886;2022-09-17T10:48:04;2.85;;;0.90;;
60964;SDS011;46834;51.100;6.886;2022-09-17T10:50:46;1.98;;;0.63;;
60964;SDS011;46834;51.100;6.886;2022-09-17T10:53:20;3.33;;;0.82;;
60964;SDS011;46834;51.100;6.886;2022-09-17T10:56:00;2.85;;;0.80;;
60964;SDS011;46834;51.100;6.886;2022-09-17T11:02:32;4.07;;;0.77;;
60964;SDS011;46834;51.100;6.886;2022-09-17T11:08:09;2.92;;;0.98;;
60964;SDS011;46834;51.100;6.886;2022-09-17T11:11:09;1.38;;;0.75;;
60964;SDS011;46834;51.100;6.886;2022-09-17T11:17:06;2.28;;;0.90;;
60964;SDS011;46834;51.100;6.886;2022-09-17T11:20:16;4.03;;;1.10;;
60964;SDS011;46834;51.100;6.886;2022-09-17T11:26:14;1.88;;;0.60;;
60964;SDS011;46834;51.100;6.886;2022-09-17T11:35:48;2.97;;;0.90;;
60964;SDS011;46834;51.100;6.886;2022-09-17T11:38:44;1.83;;;0.73;;
60964;SDS011;46834;51.100;6.886;2022-09-17T11:41:18;1.83;;;0.90;;
60964;SDS011;46834;51.100;6.886;2022-09-17T11:43:50;3.50;;;0.90;;
60964;SDS011;46834;51.100;6.886;2022-09-17T11:46:39;4.18;;;0.93;;
60964;SDS011;46834;51.100;6.886;2022-09-17T11:51:49;1.70;;;0.73;;
60964;SDS011;46834;51.100;6.886;2022-09-17T11:54:30;0.98;;;0.43;;
60964;SDS011;46834;51.100;6.886;2022-09-17T11:57:20;1.92;;;0.60;;
60964;SDS011;46834;51.100;6.886;2022-09-17T11:59:53;3.80;;;0.60;;
60964;SDS011;46834;51.100;6.886;2022-09-17T12:02:41;4.25;;;1.30;;
60964;SDS011;46834;51.100;6.886;2022-09-17T12:11:18;3.45;;;0.65;;
60964;SDS011;46834;51.100;6.886;2022-09-17T12:17:38;2.97;;;0.60;;
60964;SDS011;46834;51.100;6.886;2022-09-17T12:20:23;0.63;;;0.40;;
60964;SDS011;46834;51.100;6.886;2022-09-17T12:22:56;1.83;;;0.60;;
60964;SDS011;46834;51.100;6.886;2022-09-17T12:25:27;0.68;;;0.43;;
60964;SDS011;46834;51.100;6.886;2022-09-17T12:28:12;2.47;;;0.60;;
60964;SDS011;46834;51.100;6.886;2022-09-17T12:31:46;1.23;;;0.60;;
60964;SDS011;46834;51.100;6.886;2022-09-17T12:34:19;3.92;;;0.70;;
60964;SDS011;46834;51.100;6.886;2022-09-17T12:37:13;3.40;;;0.75;;
60964;SDS011;46834;51.100;6.886;2022-09-17T12:40:29;0.85;;;0.50;;
60964;SDS011;46834;51.100;6.886;2022-09-17T12:43:22;1.92;;;0.82;;
60964;SDS011;46834;51.100;6.886;2022-09-17T12:45:58;0.90;;;0.60;;
60964;SDS011;46834;51.100;6.886;2022-09-17T12:48:57;1.13;;;0.80;;
60964;SDS011;46834;51.100;6.886;2022-09-17T12:54:32;2.47;;;0.50;;
60964;SDS011;46834;51.100;6.886;2022-09-17T12:57:50;0.80;;;0.60;;
60964;SDS011;46834;51.100;6.886;2022-09-17T13:00:43;0.63;;;0.45;;
60964;SDS011;46834;51.100;6.886;2022-09-17T13:06:12;1.40;;;0.50;;
60964;SDS011;46834;51.100;6.886;2022-09-17T13:11:48;0.47;;;0.40;;
60964;SDS011;46834;51.100;6.886;2022-09-17T13:17:40;0.80;;;0.50;;
60964;SDS011;46834;51.100;6.886;2022-09-17T13:20:17;0.55;;;0.40;;
60964;SDS011;46834;51.100;6.886;2022-09-17T13:23:27;0.38;;;0.38;;
60964;SDS011;46834;51.100;6.886;2022-09-17T13:26:06;0.40;;;0.40;;
60964;SDS011;46834;51.100;6.886;2022-09-17T13:28:35;0.40;;;0.40;;
60964;SDS011;46834;51.100;6.886;2022-09-17T13:31:19;0.75;;;0.40;;
60964;SDS011;46834;51.100;6.886;2022-09-17T13:33:59;0.43;;;0.38;;
60964;SDS011;46834;51.100;6.886;2022-09-17T13:36:37;3.13;;;0.40;;
60964;SDS011;46834;51.100;6.886;2022-09-17T13:42:27;0.47;;;0.40;;
60964;SDS011;46834;51.100;6.886;2022-09-17T13:50:31;2.25;;;0.60;;
60964;SDS011;46834;51.100;6.886;2022-09-17T13:53:05;1.02;;;0.57;;
60964;SDS011;46834;51.100;6.886;2022-09-17T13:55:39;2.00;;;0.73;;
60964;SDS011;46834;51.100;6.886;2022-09-17T14:03:47;2.22;;;0.50;;
60964;SDS011;46834;51.100;6.886;2022-09-17T14:13:47;2.63;;;0.75;;
60964;SDS011;46834;51.100;6.886;2022-09-17T14:21:44;1.23;;;0.60;;
60964;SDS011;46834;51.100;6.886;2022-09-17T14:24:22;1.55;;;0.65;;
60964;SDS011;46834;51.100;6.886;2022-09-17T14:29:57;1.25;;;0.50;;
60964;SDS011;46834;51.100;6.886;2022-09-17T14:35:22;2.00;;;0.50;;
60964;SDS011;46834;51.100;6.886;2022-09-17T14:37:54;2.17;;;0.70;;
60964;SDS011;46834;51.100;6.886;2022-09-17T14:43:43;1.15;;;0.70;;
60964;SDS011;46834;51.100;6.886;2022-09-17T14:46:19;2.30;;;0.82;;
60964;SDS011;46834;51.100;6.886;2022-09-17T14:49:19;4.05;;;0.85;;
60964;SDS011;46834;51.100;6.886;2022-09-17T14:51:46;2.33;;;0.82;;
60964;SDS011;46834;51.100;6.886;2022-09-17T14:54:15;3.92;;;1.00;;
60964;SDS011;46834;51.100;6.886;2022-09-17T14:59:42;2.65;;;0.80;;
60964;SDS011;46834;51.100;6.886;2022-09-17T15:02:26;2.47;;;0.93;;
60964;SDS011;46834;51.100;6.886;2022-09-17T15:04:58;2.05;;;0.68;;
60964;SDS011;46834;51.100;6.886;2022-09-17T15:07:24;2.30;;;0.77;;
60964;SDS011;46834;51.100;6.886;2022-09-17T15:09:51;1.42;;;0.65;;
60964;SDS011;46834;51.100;6.886;2022-09-17T15:12:20;1.83;;;0.77;;
60964;SDS011;46834;51.100;6.886;2022-09-17T15:14:53;2.78;;;0.88;;
60964;SDS011;46834;51.100;6.886;2022-09-17T15:17:21;2.08;;;0.70;;
60964;SDS011;46834;51.100;6.886;2022-09-17T15:19:48;2.65;;;0.90;;
60964;SDS011;46834;51.100;6.886;2022-09-17T15:22:22;4.75;;;0.88;;
60964;SDS011;46834;51.100;6.886;2022-09-17T15:24:58;1.90;;;0.82;;
60964;SDS011;46834;51.100;6.886;2022-09-17T15:27:33;3.17;;;0.90;;
60964;SDS011;46834;51.100;6.886;2022-09-17T15:30:19;2.42;;;0.90;;
60964;SDS011;46834;51.100;6.886;2022-09-17T15:32:48;3.20;;;1.10;;
60964;SDS011;46834;51.100;6.886;2022-09-17T15:35:21;3.17;;;0.80;;
60964;SDS011;46834;51.100;6.886;2022-09-17T15:40:50;3.28;;;0.80;;
60964;SDS011;46834;51.100;6.886;2022-09-17T15:45:57;1.58;;;0.70;;
60964;SDS011;46834;51.100;6.886;2022-09-17T15:48:45;2.72;;;1.10;;
60964;SDS011;46834;51.100;6.886;2022-09-17T15:51:22;3.90;;;0.90;;
60964;SDS011;46834;51.100;6.886;2022-09-17T15:53:53;3.83;;;0.93;;
60964;SDS011;46834;51.100;6.886;2022-09-17T15:56:32;2.28;;;0.80;;
60964;SDS011;46834;51.100;6.886;2022-09-17T15:59:20;2.45;;;1.00;;
60964;SDS011;46834;51.100;6.886;2022-09-17T16:01:55;3.75;;;0.77;;
60964;SDS011;46834;51.100;6.886;2022-09-17T16:04:30;2.72;;;0.80;;
60964;SDS011;46834;51.100;6.886;2022-09-17T16:06:59;3.03;;;1.00;;
60964;SDS011;46834;51.100;6.886;2022-09-17T16:12:15;4.28;;;1.00;;
60964;SDS011;46834;51.100;6.886;2022-09-17T16:14:45;5.47;;;1.30;;
60964;SDS011;46834;51.100;6.886;2022-09-17T16:17:21;6.15;;;1.13;;
60964;SDS011;46834;51.100;6.886;2022-09-17T16:20:07;3.03;;;1.00;;
60964;SDS011;46834;51.100;6.886;2022-09-17T16:22:47;3.25;;;1.20;;
60964;SDS011;46834;51.100;6.886;2022-09-17T16:25:19;4.20;;;1.20;;
60964;SDS011;46834;51.100;6.886;2022-09-17T16:27:50;3.28;;;1.15;;
60964;SDS011;46834;51.100;6.886;2022-09-17T16:30:22;2.72;;;1.10;;
60964;SDS011;46834;51.100;6.886;2022-09-17T16:32:49;2.33;;;0.90;;
60964;SDS011;46834;51.100;6.886;2022-09-17T16:35:16;3.28;;;1.05;;
60964;SDS011;46834;51.100;6.886;2022-09-17T16:37:47;2.38;;;0.88;;
60964;SDS011;46834;51.100;6.886;2022-09-17T16:40:18;4.28;;;1.10;;
60964;SDS011;46834;51.100;6.886;2022-09-17T16:42:45;3.20;;;0.90;;
60964;SDS011;46834;51.100;6.886;2022-09-17T16:45:11;5.13;;;1.33;;
60964;SDS011;46834;51.100;6.886;2022-09-17T16:47:38;3.38;;;0.93;;
60964;SDS011;46834;51.100;6.886;2022-09-17T16:50:06;5.60;;;1.10;;
60964;SDS011;46834;51.100;6.886;2022-09-17T16:52:38;3.83;;;1.08;;
60964;SDS011;46834;51.100;6.886;2022-09-17T16:55:04;3.10;;;0.80;;
60964;SDS011;46834;51.100;6.886;2022-09-17T16:57:31;3.80;;;0.98;;
60964;SDS011;46834;51.100;6.886;2022-09-17T16:59:57;2.72;;;1.00;;
60964;SDS011;46834;51.100;6.886;2022-09-17T17:02:23;2.22;;;1.05;;
60964;SDS011;46834;51.100;6.886;2022-09-17T17:04:49;3.33;;;1.25;;
60964;SDS011;46834;51.100;6.886;2022-09-17T17:07:15;3.10;;;0.90;;
60964;SDS011;46834;51.100;6.886;2022-09-17T17:09:41;2.42;;;0.60;;
60964;SDS011;46834;51.100;6.886;2022-09-17T17:12:06;1.83;;;0.90;;
60964;SDS011;46834;51.100;6.886;2022-09-17T17:14:32;6.40;;;1.13;;
60964;SDS011;46834;51.100;6.886;2022-09-17T17:16:58;2.17;;;0.77;;
60964;SDS011;46834;51.100;6.886;2022-09-17T17:19:24;2.17;;;0.80;;
60964;SDS011;46834;51.100;6.886;2022-09-17T17:21:50;3.30;;;0.75;;
60964;SDS011;46834;51.100;6.886;2022-09-17T17:24:18;3.42;;;0.93;;
60964;SDS011;46834;51.100;6.886;2022-09-17T17:26:45;1.95;;;0.82;;
60964;SDS011;46834;51.100;6.886;2022-09-17T17:29:12;1.92;;;0.70;;
60964;SDS011;46834;51.100;6.886;2022-09-17T17:31:38;4.68;;;1.35;;
60964;SDS011;46834;51.100;6.886;2022-09-17T17:34:04;1.15;;;0.70;;
60964;SDS011;46834;51.100;6.886;2022-09-17T17:36:31;4.18;;;1.30;;
60964;SDS011;46834;51.100;6.886;2022-09-17T17:38:57;2.13;;;0.90;;
60964;SDS011;46834;51.100;6.886;2022-09-17T17:41:24;2.55;;;0.80;;
60964;SDS011;46834;51.100;6.886;2022-09-17T17:43:54;3.72;;;0.93;;
60964;SDS011;46834;51.100;6.886;2022-09-17T17:46:21;2.47;;;0.90;;
60964;SDS011;46834;51.100;6.886;2022-09-17T17:48:48;2.42;;;0.75;;
60964;SDS011;46834;51.100;6.886;2022-09-17T17:51:14;2.75;;;1.00;;
60964;SDS011;46834;51.100;6.886;2022-09-17T17:53:42;1.73;;;1.02;;
60964;SDS011;46834;51.100;6.886;2022-09-17T17:56:09;2.17;;;0.90;;
60964;SDS011;46834;51.100;6.886;2022-09-17T17:58:36;1.55;;;0.70;;
60964;SDS011;46834;51.100;6.886;2022-09-17T18:03:42;3.92;;;1.17;;
60964;SDS011;46834;51.100;6.886;2022-09-17T18:06:08;2.33;;;0.88;;
60964;SDS011;46834;51.100;6.886;2022-09-17T18:08:35;2.85;;;1.30;;
60964;SDS011;46834;51.100;6.886;2022-09-17T18:11:02;2.80;;;1.00;;